sensor_id;sensor_type;location;lat;lon;timestamp;P1;durP1;ratioP1;P2;durP2;ratioP2
29248;SDS011;16273;51.234;7.616;2023-03-13T00:02:30;19.60;;;4.10;;
29248;SDS011;16273;51.234;7.616;2023-03-13T00:05:16;26.45;;;5.38;;
29248;SDS011;16273;51.234;7.616;2023-03-13T00:08:01;16.98;;;4.88;;
29248;SDS011;16273;51.234;7.616;2023-03-13T00:10:47;18.30;;;4.38;;
29248;SDS011;16273;51.234;7.616;2023-03-13T00:13:33;24.33;;;4.68;;
29248;SDS011;16273;51.234;7.616;2023-03-13T00:16:18;16.85;;;4.32;;
29248;SDS011;16273;51.234;7.616;2023-03-13T00:19:04;22.05;;;5.53;;
29248;SDS011;16273;51.234;7.616;2023-03-13T00:21:50;24.30;;;4.40;;
29248;SDS011;16273;51.234;7.616;2023-03-13T00:24:36;25.67;;;4.63;;
29248;SDS011;16273;51.234;7.616;2023-03-13T00:27:21;14.05;;;3.55;;
29248;SDS011;16273;51.234;7.616;2023-03-13T00:30:07;21.23;;;4.40;;
29248;SDS011;16273;51.234;7.616;2023-03-13T00:32:53;17.20;;;4.18;;
29248;SDS011;16273;51.234;7.616;2023-03-13T00:35:38;16.38;;;4.55;;
29248;SDS011;16273;51.234;7.616;2023-03-13T00:38:24;13.95;;;3.13;;
29248;SDS011;16273;51.234;7.616;2023-03-13T00:41:17;21.70;;;4.28;;
29248;SDS011;16273;51.234;7.616;2023-03-13T00:44:02;13.52;;;4.85;;
29248;SDS011;16273;51.234;7.616;2023-03-13T00:46:48;23.85;;;4.82;;
29248;SDS011;16273;51.234;7.616;2023-03-13T00:49:34;19.65;;;4.75;;
29248;SDS011;16273;51.234;7.616;2023-03-13T00:52:19;13.73;;;4.72;;
29248;SDS011;16273;51.234;7.616;2023-03-13T00:55:05;19.48;;;4.57;;
29248;SDS011;16273;51.234;7.616;2023-03-13T00:57:51;24.60;;;4.20;;
29248;SDS011;16273;51.234;7.616;2023-03-13T01:00:36;19.95;;;4.97;;
29248;SDS011;16273;51.234;7.616;2023-03-13T01:03:22;19.25;;;4.40;;
29248;SDS011;16273;51.234;7.616;2023-03-13T01:06:12;20.85;;;4.53;;
29248;SDS011;16273;51.234;7.616;2023-03-13T01:08:58;18.95;;;5.20;;
29248;SDS011;16273;51.234;7.616;2023-03-13T01:11:44;22.30;;;4.20;;
29248;SDS011;16273;51.234;7.616;2023-03-13T01:14:30;20.30;;;3.83;;
29248;SDS011;16273;51.234;7.616;2023-03-13T01:17:15;26.15;;;5.10;;
29248;SDS011;16273;51.234;7.616;2023-03-13T01:20:01;25.02;;;4.65;;
29248;SDS011;16273;51.234;7.616;2023-03-13T01:22:47;24.55;;;5.72;;
29248;SDS011;16273;51.234;7.616;2023-03-13T01:25:34;21.80;;;5.32;;
29248;SDS011;16273;51.234;7.616;2023-03-13T01:28:20;22.50;;;4.10;;
29248;SDS011;16273;51.234;7.616;2023-03-13T01:34:03;17.38;;;5.45;;
29248;SDS011;16273;51.234;7.616;2023-03-13T01:36:49;24.50;;;5.38;;
29248;SDS011;16273;51.234;7.616;2023-03-13T01:39:36;23.60;;;5.43;;
29248;SDS011;16273;51.234;7.616;2023-03-13T01:42:22;25.52;;;4.55;;
29248;SDS011;16273;51.234;7.616;2023-03-13T01:45:48;25.33;;;5.07;;
29248;SDS011;16273;51.234;7.616;2023-03-13T01:48:13;16.35;;;4.68;;
29248;SDS011;16273;51.234;7.616;2023-03-13T01:50:59;24.17;;;5.05;;
29248;SDS011;16273;51.234;7.616;2023-03-13T01:53:46;19.40;;;4.53;;
29248;SDS011;16273;51.234;7.616;2023-03-13T01:56:42;24.85;;;5.00;;
29248;SDS011;16273;51.234;7.616;2023-03-13T01:59:30;20.60;;;4.68;;
29248;SDS011;16273;51.234;7.616;2023-03-13T02:02:16;24.80;;;4.78;;
29248;SDS011;16273;51.234;7.616;2023-03-13T02:05:02;21.65;;;5.07;;
29248;SDS011;16273;51.234;7.616;2023-03-13T02:07:54;26.08;;;4.45;;
29248;SDS011;16273;51.234;7.616;2023-03-13T02:10:42;21.25;;;4.30;;
29248;SDS011;16273;51.234;7.616;2023-03-13T02:13:29;24.23;;;5.28;;
29248;SDS011;16273;51.234;7.616;2023-03-13T02:16:14;24.00;;;5.88;;
29248;SDS011;16273;51.234;7.616;2023-03-13T02:19:01;16.30;;;4.53;;
29248;SDS011;16273;51.234;7.616;2023-03-13T02:21:49;23.10;;;5.38;;
29248;SDS011;16273;51.234;7.616;2023-03-13T02:27:30;19.23;;;4.65;;
29248;SDS011;16273;51.234;7.616;2023-03-13T02:30:16;18.02;;;4.70;;
29248;SDS011;16273;51.234;7.616;2023-03-13T02:33:01;16.65;;;4.75;;
29248;SDS011;16273;51.234;7.616;2023-03-13T02:35:47;16.73;;;4.50;;
29248;SDS011;16273;51.234;7.616;2023-03-13T02:38:35;21.25;;;5.07;;
29248;SDS011;16273;51.234;7.616;2023-03-13T02:41:22;14.45;;;4.43;;
29248;SDS011;16273;51.234;7.616;2023-03-13T02:44:08;13.75;;;4.38;;
29248;SDS011;16273;51.234;7.616;2023-03-13T02:46:54;20.88;;;4.97;;
29248;SDS011;16273;51.234;7.616;2023-03-13T02:49:40;13.80;;;4.60;;
29248;SDS011;16273;51.234;7.616;2023-03-13T02:52:27;15.13;;;4.50;;
29248;SDS011;16273;51.234;7.616;2023-03-13T02:55:14;16.77;;;4.88;;
29248;SDS011;16273;51.234;7.616;2023-03-13T02:58:02;15.27;;;4.53;;
29248;SDS011;16273;51.234;7.616;2023-03-13T03:00:47;11.98;;;4.20;;
29248;SDS011;16273;51.234;7.616;2023-03-13T03:03:34;17.25;;;4.80;;
29248;SDS011;16273;51.234;7.616;2023-03-13T03:06:20;15.77;;;4.80;;
29248;SDS011;16273;51.234;7.616;2023-03-13T03:09:06;15.77;;;4.30;;
29248;SDS011;16273;51.234;7.616;2023-03-13T03:11:51;15.60;;;4.55;;
29248;SDS011;16273;51.234;7.616;2023-03-13T03:14:37;14.48;;;4.43;;
29248;SDS011;16273;51.234;7.616;2023-03-13T03:17:22;16.77;;;4.43;;
29248;SDS011;16273;51.234;7.616;2023-03-13T03:20:08;12.63;;;3.97;;
29248;SDS011;16273;51.234;7.616;2023-03-13T03:22:56;16.65;;;4.63;;
29248;SDS011;16273;51.234;7.616;2023-03-13T03:25:41;12.30;;;4.90;;
29248;SDS011;16273;51.234;7.616;2023-03-13T03:28:28;12.93;;;4.35;;
29248;SDS011;16273;51.234;7.616;2023-03-13T03:31:13;15.02;;;4.28;;
29248;SDS011;16273;51.234;7.616;2023-03-13T03:33:59;18.00;;;4.32;;
29248;SDS011;16273;51.234;7.616;2023-03-13T03:36:46;16.98;;;5.05;;
29248;SDS011;16273;51.234;7.616;2023-03-13T03:39:32;18.33;;;5.47;;
29248;SDS011;16273;51.234;7.616;2023-03-13T03:42:17;13.77;;;5.05;;
29248;SDS011;16273;51.234;7.616;2023-03-13T03:45:03;11.07;;;4.80;;
29248;SDS011;16273;51.234;7.616;2023-03-13T03:47:49;10.23;;;4.10;;
29248;SDS011;16273;51.234;7.616;2023-03-13T03:50:42;16.13;;;4.78;;
29248;SDS011;16273;51.234;7.616;2023-03-13T03:53:27;15.45;;;4.40;;
29248;SDS011;16273;51.234;7.616;2023-03-13T03:56:13;15.68;;;5.18;;
29248;SDS011;16273;51.234;7.616;2023-03-13T03:58:59;21.25;;;4.82;;
29248;SDS011;16273;51.234;7.616;2023-03-13T04:01:44;14.65;;;4.35;;
29248;SDS011;16273;51.234;7.616;2023-03-13T04:04:30;14.50;;;4.30;;
29248;SDS011;16273;51.234;7.616;2023-03-13T04:07:15;14.98;;;4.95;;
29248;SDS011;16273;51.234;7.616;2023-03-13T04:10:02;18.17;;;4.57;;
29248;SDS011;16273;51.234;7.616;2023-03-13T04:12:47;14.35;;;4.13;;
29248;SDS011;16273;51.234;7.616;2023-03-13T04:15:33;14.68;;;4.25;;
29248;SDS011;16273;51.234;7.616;2023-03-13T04:18:19;17.48;;;4.40;;
29248;SDS011;16273;51.234;7.616;2023-03-13T04:21:05;13.65;;;5.30;;
29248;SDS011;16273;51.234;7.616;2023-03-13T04:23:51;13.65;;;4.90;;
29248;SDS011;16273;51.234;7.616;2023-03-13T04:26:36;21.55;;;9.32;;
29248;SDS011;16273;51.234;7.616;2023-03-13T04:29:22;13.70;;;4.88;;
29248;SDS011;16273;51.234;7.616;2023-03-13T04:32:07;13.88;;;5.15;;
29248;SDS011;16273;51.234;7.616;2023-03-13T04:34:53;10.07;;;4.20;;
29248;SDS011;16273;51.234;7.616;2023-03-13T04:37:39;12.93;;;5.05;;
29248;SDS011;16273;51.234;7.616;2023-03-13T04:40:24;9.25;;;4.75;;
29248;SDS011;16273;51.234;7.616;2023-03-13T04:43:10;12.15;;;4.57;;
29248;SDS011;16273;51.234;7.616;2023-03-13T04:45:55;14.43;;;4.47;;
29248;SDS011;16273;51.234;7.616;2023-03-13T04:48:41;10.57;;;4.88;;
29248;SDS011;16273;51.234;7.616;2023-03-13T04:51:27;10.50;;;4.05;;
29248;SDS011;16273;51.234;7.616;2023-03-13T04:54:12;10.90;;;4.43;;
29248;SDS011;16273;51.234;7.616;2023-03-13T04:56:58;9.10;;;3.78;;
29248;SDS011;16273;51.234;7.616;2023-03-13T04:59:44;7.43;;;4.55;;
29248;SDS011;16273;51.234;7.616;2023-03-13T05:02:29;11.98;;;4.00;;
29248;SDS011;16273;51.234;7.616;2023-03-13T05:05:15;7.35;;;3.78;;
29248;SDS011;16273;51.234;7.616;2023-03-13T05:08:01;8.93;;;4.88;;
29248;SDS011;16273;51.234;7.616;2023-03-13T05:10:46;12.32;;;4.82;;
29248;SDS011;16273;51.234;7.616;2023-03-13T05:13:32;5.47;;;3.55;;
29248;SDS011;16273;51.234;7.616;2023-03-13T05:16:18;6.43;;;3.60;;
29248;SDS011;16273;51.234;7.616;2023-03-13T05:19:03;7.82;;;4.32;;
29248;SDS011;16273;51.234;7.616;2023-03-13T05:21:49;8.43;;;3.63;;
29248;SDS011;16273;51.234;7.616;2023-03-13T05:24:35;11.23;;;3.80;;
29248;SDS011;16273;51.234;7.616;2023-03-13T05:27:20;9.25;;;3.25;;
29248;SDS011;16273;51.234;7.616;2023-03-13T05:30:06;7.15;;;3.50;;
29248;SDS011;16273;51.234;7.616;2023-03-13T05:32:52;6.65;;;4.07;;
29248;SDS011;16273;51.234;7.616;2023-03-13T05:35:38;5.47;;;3.72;;
29248;SDS011;16273;51.234;7.616;2023-03-13T05:38:23;5.38;;;2.97;;
29248;SDS011;16273;51.234;7.616;2023-03-13T05:41:09;5.53;;;3.53;;
29248;SDS011;16273;51.234;7.616;2023-03-13T05:43:54;9.00;;;3.10;;
29248;SDS011;16273;51.234;7.616;2023-03-13T05:46:40;5.45;;;2.80;;
29248;SDS011;16273;51.234;7.616;2023-03-13T05:49:25;8.18;;;3.28;;
29248;SDS011;16273;51.234;7.616;2023-03-13T05:52:11;8.23;;;2.75;;
29248;SDS011;16273;51.234;7.616;2023-03-13T05:54:57;7.80;;;2.92;;
29248;SDS011;16273;51.234;7.616;2023-03-13T05:57:43;4.82;;;2.80;;
29248;SDS011;16273;51.234;7.616;2023-03-13T06:00:29;6.25;;;2.83;;
29248;SDS011;16273;51.234;7.616;2023-03-13T06:03:14;6.70;;;2.53;;
29248;SDS011;16273;51.234;7.616;2023-03-13T06:06:00;4.10;;;2.60;;
29248;SDS011;16273;51.234;7.616;2023-03-13T06:08:50;3.88;;;2.55;;
29248;SDS011;16273;51.234;7.616;2023-03-13T06:11:36;2.80;;;2.10;;
29248;SDS011;16273;51.234;7.616;2023-03-13T06:14:23;4.95;;;1.95;;
29248;SDS011;16273;51.234;7.616;2023-03-13T06:17:09;4.97;;;2.30;;
29248;SDS011;16273;51.234;7.616;2023-03-13T06:19:55;3.40;;;2.08;;
29248;SDS011;16273;51.234;7.616;2023-03-13T06:22:43;4.50;;;2.33;;
29248;SDS011;16273;51.234;7.616;2023-03-13T06:25:29;3.70;;;2.33;;
29248;SDS011;16273;51.234;7.616;2023-03-13T06:28:17;5.03;;;2.30;;
29248;SDS011;16273;51.234;7.616;2023-03-13T06:31:03;4.07;;;2.70;;
29248;SDS011;16273;51.234;7.616;2023-03-13T06:33:53;3.95;;;2.15;;
29248;SDS011;16273;51.234;7.616;2023-03-13T06:36:39;2.83;;;2.30;;
29248;SDS011;16273;51.234;7.616;2023-03-13T06:39:26;3.90;;;2.75;;
29248;SDS011;16273;51.234;7.616;2023-03-13T06:42:12;2.90;;;2.30;;
29248;SDS011;16273;51.234;7.616;2023-03-13T06:45:00;3.05;;;2.15;;
29248;SDS011;16273;51.234;7.616;2023-03-13T06:47:48;5.90;;;3.95;;
29248;SDS011;16273;51.234;7.616;2023-03-13T06:50:39;3.72;;;2.28;;
29248;SDS011;16273;51.234;7.616;2023-03-13T06:53:25;4.25;;;3.20;;
29248;SDS011;16273;51.234;7.616;2023-03-13T06:56:12;4.40;;;2.10;;
29248;SDS011;16273;51.234;7.616;2023-03-13T06:58:59;5.82;;;2.72;;
29248;SDS011;16273;51.234;7.616;2023-03-13T07:01:45;4.80;;;2.35;;
29248;SDS011;16273;51.234;7.616;2023-03-13T07:04:32;5.78;;;3.58;;
29248;SDS011;16273;51.234;7.616;2023-03-13T07:07:18;3.15;;;2.20;;
29248;SDS011;16273;51.234;7.616;2023-03-13T07:10:04;3.53;;;2.08;;
29248;SDS011;16273;51.234;7.616;2023-03-13T07:12:50;3.38;;;1.70;;
29248;SDS011;16273;51.234;7.616;2023-03-13T07:15:35;3.33;;;2.30;;
29248;SDS011;16273;51.234;7.616;2023-03-13T07:18:21;5.63;;;2.67;;
29248;SDS011;16273;51.234;7.616;2023-03-13T07:21:09;4.20;;;2.22;;
29248;SDS011;16273;51.234;7.616;2023-03-13T07:24:00;3.65;;;2.60;;
29248;SDS011;16273;51.234;7.616;2023-03-13T07:26:47;4.50;;;2.20;;
29248;SDS011;16273;51.234;7.616;2023-03-13T07:29:34;2.88;;;1.80;;
29248;SDS011;16273;51.234;7.616;2023-03-13T07:32:23;5.18;;;2.80;;
29248;SDS011;16273;51.234;7.616;2023-03-13T07:35:08;3.17;;;1.98;;
29248;SDS011;16273;51.234;7.616;2023-03-13T07:37:54;3.80;;;2.65;;
29248;SDS011;16273;51.234;7.616;2023-03-13T07:40:46;4.45;;;2.35;;
29248;SDS011;16273;51.234;7.616;2023-03-13T07:43:31;5.13;;;2.83;;
29248;SDS011;16273;51.234;7.616;2023-03-13T07:46:18;7.25;;;3.45;;
29248;SDS011;16273;51.234;7.616;2023-03-13T07:49:04;3.55;;;2.47;;
29248;SDS011;16273;51.234;7.616;2023-03-13T07:51:50;4.60;;;2.60;;
29248;SDS011;16273;51.234;7.616;2023-03-13T07:54:36;3.80;;;2.58;;
29248;SDS011;16273;51.234;7.616;2023-03-13T07:57:22;3.03;;;2.30;;
29248;SDS011;16273;51.234;7.616;2023-03-13T08:00:08;4.63;;;2.63;;
29248;SDS011;16273;51.234;7.616;2023-03-13T08:02:59;4.95;;;2.70;;
29248;SDS011;16273;51.234;7.616;2023-03-13T08:05:45;4.72;;;3.13;;
29248;SDS011;16273;51.234;7.616;2023-03-13T08:08:31;5.05;;;3.22;;
29248;SDS011;16273;51.234;7.616;2023-03-13T08:11:19;5.55;;;2.67;;
29248;SDS011;16273;51.234;7.616;2023-03-13T08:14:05;8.27;;;2.95;;
29248;SDS011;16273;51.234;7.616;2023-03-13T08:16:51;3.78;;;2.97;;
29248;SDS011;16273;51.234;7.616;2023-03-13T08:19:37;4.95;;;3.60;;
29248;SDS011;16273;51.234;7.616;2023-03-13T08:22:23;6.75;;;3.28;;
29248;SDS011;16273;51.234;7.616;2023-03-13T08:25:09;8.52;;;4.25;;
29248;SDS011;16273;51.234;7.616;2023-03-13T08:27:58;4.82;;;3.42;;
29248;SDS011;16273;51.234;7.616;2023-03-13T08:30:44;6.95;;;3.53;;
29248;SDS011;16273;51.234;7.616;2023-03-13T08:33:33;7.85;;;3.67;;
29248;SDS011;16273;51.234;7.616;2023-03-13T08:36:27;4.93;;;3.28;;
29248;SDS011;16273;51.234;7.616;2023-03-13T08:39:17;7.35;;;4.18;;
29248;SDS011;16273;51.234;7.616;2023-03-13T08:42:03;5.68;;;3.80;;
29248;SDS011;16273;51.234;7.616;2023-03-13T08:44:48;6.55;;;3.58;;
29248;SDS011;16273;51.234;7.616;2023-03-13T08:47:34;7.53;;;3.47;;
29248;SDS011;16273;51.234;7.616;2023-03-13T08:50:20;8.30;;;4.13;;
29248;SDS011;16273;51.234;7.616;2023-03-13T08:53:05;6.40;;;3.35;;
29248;SDS011;16273;51.234;7.616;2023-03-13T08:55:52;4.75;;;3.45;;
29248;SDS011;16273;51.234;7.616;2023-03-13T08:58:38;6.68;;;3.63;;
29248;SDS011;16273;51.234;7.616;2023-03-13T09:01:25;6.30;;;3.47;;
29248;SDS011;16273;51.234;7.616;2023-03-13T09:04:11;6.53;;;4.22;;
29248;SDS011;16273;51.234;7.616;2023-03-13T09:06:56;10.00;;;5.18;;
29248;SDS011;16273;51.234;7.616;2023-03-13T09:09:42;4.95;;;4.38;;
29248;SDS011;16273;51.234;7.616;2023-03-13T09:12:28;10.35;;;4.03;;
29248;SDS011;16273;51.234;7.616;2023-03-13T09:15:14;13.00;;;4.93;;
29248;SDS011;16273;51.234;7.616;2023-03-13T09:18:00;9.10;;;4.95;;
29248;SDS011;16273;51.234;7.616;2023-03-13T09:20:46;10.82;;;5.07;;
29248;SDS011;16273;51.234;7.616;2023-03-13T09:23:31;11.35;;;4.90;;
29248;SDS011;16273;51.234;7.616;2023-03-13T09:26:18;11.07;;;4.60;;
29248;SDS011;16273;51.234;7.616;2023-03-13T09:29:03;8.65;;;4.57;;
29248;SDS011;16273;51.234;7.616;2023-03-13T09:31:49;13.23;;;4.60;;
29248;SDS011;16273;51.234;7.616;2023-03-13T09:34:35;8.88;;;5.25;;
29248;SDS011;16273;51.234;7.616;2023-03-13T09:37:21;11.77;;;5.60;;
29248;SDS011;16273;51.234;7.616;2023-03-13T09:40:08;9.57;;;5.15;;
29248;SDS011;16273;51.234;7.616;2023-03-13T09:42:58;9.23;;;5.70;;
29248;SDS011;16273;51.234;7.616;2023-03-13T09:45:44;12.63;;;5.82;;
29248;SDS011;16273;51.234;7.616;2023-03-13T09:48:32;11.02;;;6.28;;
29248;SDS011;16273;51.234;7.616;2023-03-13T09:51:20;14.45;;;6.10;;
29248;SDS011;16273;51.234;7.616;2023-03-13T09:54:22;15.43;;;6.68;;
29248;SDS011;16273;51.234;7.616;2023-03-13T09:57:17;12.18;;;5.60;;
29248;SDS011;16273;51.234;7.616;2023-03-13T10:00:09;9.05;;;5.68;;
29248;SDS011;16273;51.234;7.616;2023-03-13T10:05:48;11.75;;;6.93;;
29248;SDS011;16273;51.234;7.616;2023-03-13T10:08:34;13.98;;;7.68;;
29248;SDS011;16273;51.234;7.616;2023-03-13T10:11:28;17.77;;;7.80;;
29248;SDS011;16273;51.234;7.616;2023-03-13T10:14:22;14.38;;;8.15;;
29248;SDS011;16273;51.234;7.616;2023-03-13T10:17:17;9.80;;;6.78;;
29248;SDS011;16273;51.234;7.616;2023-03-13T10:23:12;12.13;;;6.63;;
29248;SDS011;16273;51.234;7.616;2023-03-13T10:25:58;14.52;;;5.90;;
29248;SDS011;16273;51.234;7.616;2023-03-13T10:28:44;15.15;;;6.55;;
29248;SDS011;16273;51.234;7.616;2023-03-13T10:31:30;14.57;;;6.65;;
29248;SDS011;16273;51.234;7.616;2023-03-13T10:34:19;11.93;;;5.72;;
29248;SDS011;16273;51.234;7.616;2023-03-13T10:37:05;10.57;;;6.45;;
29248;SDS011;16273;51.234;7.616;2023-03-13T10:39:51;12.68;;;6.43;;
29248;SDS011;16273;51.234;7.616;2023-03-13T10:42:41;9.85;;;5.57;;
29248;SDS011;16273;51.234;7.616;2023-03-13T10:45:30;12.15;;;6.05;;
29248;SDS011;16273;51.234;7.616;2023-03-13T10:48:20;12.85;;;6.18;;
29248;SDS011;16273;51.234;7.616;2023-03-13T10:51:09;11.50;;;5.53;;
29248;SDS011;16273;51.234;7.616;2023-03-13T11:03:30;8.48;;;4.88;;
29248;SDS011;16273;51.234;7.616;2023-03-13T11:16:02;7.20;;;4.20;;
29248;SDS011;16273;51.234;7.616;2023-03-13T11:21:50;9.00;;;4.38;;
29248;SDS011;16273;51.234;7.616;2023-03-13T11:24:53;4.45;;;3.70;;
29248;SDS011;16273;51.234;7.616;2023-03-13T11:48:35;7.47;;;3.22;;
29248;SDS011;16273;51.234;7.616;2023-03-13T11:57:30;3.13;;;2.72;;
29248;SDS011;16273;51.234;7.616;2023-03-13T12:00:30;4.28;;;3.03;;
29248;SDS011;16273;51.234;7.616;2023-03-13T12:03:19;3.53;;;2.53;;
29248;SDS011;16273;51.234;7.616;2023-03-13T12:06:22;6.07;;;3.03;;
29248;SDS011;16273;51.234;7.616;2023-03-13T12:09:15;4.45;;;2.80;;
29248;SDS011;16273;51.234;7.616;2023-03-13T12:14:59;9.75;;;2.78;;
29248;SDS011;16273;51.234;7.616;2023-03-13T12:17:50;4.35;;;2.63;;
29248;SDS011;16273;51.234;7.616;2023-03-13T12:20:39;3.45;;;2.53;;
29248;SDS011;16273;51.234;7.616;2023-03-13T12:32:21;2.63;;;2.20;;
29248;SDS011;16273;51.234;7.616;2023-03-13T12:35:25;2.95;;;2.17;;
29248;SDS011;16273;51.234;7.616;2023-03-13T12:41:08;3.83;;;2.28;;
29248;SDS011;16273;51.234;7.616;2023-03-13T12:43:55;4.40;;;2.38;;
29248;SDS011;16273;51.234;7.616;2023-03-13T12:47:26;3.17;;;2.67;;
29248;SDS011;16273;51.234;7.616;2023-03-13T12:55:37;3.47;;;2.50;;
29248;SDS011;16273;51.234;7.616;2023-03-13T12:58:28;5.88;;;2.30;;
29248;SDS011;16273;51.234;7.616;2023-03-13T13:04:21;3.65;;;2.22;;
29248;SDS011;16273;51.234;7.616;2023-03-13T13:16:04;3.70;;;1.70;;
29248;SDS011;16273;51.234;7.616;2023-03-13T13:18:52;3.05;;;1.98;;
29248;SDS011;16273;51.234;7.616;2023-03-13T13:21:38;1.98;;;1.80;;
29248;SDS011;16273;51.234;7.616;2023-03-13T13:24:38;2.80;;;1.85;;
29248;SDS011;16273;51.234;7.616;2023-03-13T13:38:56;1.25;;;0.98;;
29248;SDS011;16273;51.234;7.616;2023-03-13T13:41:43;4.13;;;1.52;;
29248;SDS011;16273;51.234;7.616;2023-03-13T13:44:29;1.02;;;1.00;;
29248;SDS011;16273;51.234;7.616;2023-03-13T13:47:21;1.70;;;1.00;;
29248;SDS011;16273;51.234;7.616;2023-03-13T13:50:21;1.30;;;1.20;;
29248;SDS011;16273;51.234;7.616;2023-03-13T13:56:33;3.97;;;1.85;;
29248;SDS011;16273;51.234;7.616;2023-03-13T14:05:01;1.42;;;1.00;;
29248;SDS011;16273;51.234;7.616;2023-03-13T14:10:41;1.77;;;1.17;;
29248;SDS011;16273;51.234;7.616;2023-03-13T14:13:27;1.10;;;1.10;;
29248;SDS011;16273;51.234;7.616;2023-03-13T14:16:20;1.77;;;1.13;;
29248;SDS011;16273;51.234;7.616;2023-03-13T14:19:17;1.40;;;1.30;;
29248;SDS011;16273;51.234;7.616;2023-03-13T14:22:06;2.90;;;1.42;;
29248;SDS011;16273;51.234;7.616;2023-03-13T14:24:57;1.20;;;1.10;;
29248;SDS011;16273;51.234;7.616;2023-03-13T14:27:43;3.25;;;1.58;;
29248;SDS011;16273;51.234;7.616;2023-03-13T14:30:29;2.55;;;1.50;;
29248;SDS011;16273;51.234;7.616;2023-03-13T14:33:14;1.67;;;1.58;;
29248;SDS011;16273;51.234;7.616;2023-03-13T14:36:02;1.67;;;1.30;;
29248;SDS011;16273;51.234;7.616;2023-03-13T14:38:52;3.70;;;1.63;;
29248;SDS011;16273;51.234;7.616;2023-03-13T14:41:41;3.90;;;1.70;;
29248;SDS011;16273;51.234;7.616;2023-03-13T14:44:29;2.35;;;1.30;;
29248;SDS011;16273;51.234;7.616;2023-03-13T14:47:23;1.70;;;1.30;;
29248;SDS011;16273;51.234;7.616;2023-03-13T14:50:10;3.97;;;1.88;;
29248;SDS011;16273;51.234;7.616;2023-03-13T14:53:02;1.60;;;1.50;;
29248;SDS011;16273;51.234;7.616;2023-03-13T14:56:07;1.50;;;1.40;;
29248;SDS011;16273;51.234;7.616;2023-03-13T14:58:53;2.35;;;1.55;;
29248;SDS011;16273;51.234;7.616;2023-03-13T15:01:38;1.30;;;1.20;;
29248;SDS011;16273;51.234;7.616;2023-03-13T15:07:39;1.40;;;1.25;;
29248;SDS011;16273;51.234;7.616;2023-03-13T15:16:17;2.40;;;1.45;;
29248;SDS011;16273;51.234;7.616;2023-03-13T15:19:04;2.25;;;1.42;;
29248;SDS011;16273;51.234;7.616;2023-03-13T15:21:50;2.17;;;1.50;;
29248;SDS011;16273;51.234;7.616;2023-03-13T15:24:36;1.00;;;0.90;;
29248;SDS011;16273;51.234;7.616;2023-03-13T15:27:23;2.55;;;1.42;;
29248;SDS011;16273;51.234;7.616;2023-03-13T15:30:12;1.50;;;1.40;;
29248;SDS011;16273;51.234;7.616;2023-03-13T15:32:59;1.95;;;1.70;;
29248;SDS011;16273;51.234;7.616;2023-03-13T15:35:45;2.80;;;1.40;;
29248;SDS011;16273;51.234;7.616;2023-03-13T15:38:31;1.20;;;1.10;;
29248;SDS011;16273;51.234;7.616;2023-03-13T15:41:17;4.10;;;1.20;;
29248;SDS011;16273;51.234;7.616;2023-03-13T15:44:02;4.40;;;2.60;;
29248;SDS011;16273;51.234;7.616;2023-03-13T15:46:48;1.88;;;1.55;;
29248;SDS011;16273;51.234;7.616;2023-03-13T15:49:34;1.33;;;1.10;;
29248;SDS011;16273;51.234;7.616;2023-03-13T15:52:20;1.33;;;1.23;;
29248;SDS011;16273;51.234;7.616;2023-03-13T15:55:07;1.70;;;1.10;;
29248;SDS011;16273;51.234;7.616;2023-03-13T15:57:54;2.55;;;1.40;;
29248;SDS011;16273;51.234;7.616;2023-03-13T16:00:40;1.42;;;1.23;;
29248;SDS011;16273;51.234;7.616;2023-03-13T16:03:26;2.20;;;1.45;;
29248;SDS011;16273;51.234;7.616;2023-03-13T16:06:14;1.30;;;1.20;;
29248;SDS011;16273;51.234;7.616;2023-03-13T16:09:02;1.60;;;1.40;;
29248;SDS011;16273;51.234;7.616;2023-03-13T16:11:49;2.60;;;2.17;;
29248;SDS011;16273;51.234;7.616;2023-03-13T16:14:35;3.03;;;1.67;;
29248;SDS011;16273;51.234;7.616;2023-03-13T16:17:21;2.30;;;1.48;;
29248;SDS011;16273;51.234;7.616;2023-03-13T16:20:14;4.07;;;1.40;;
29248;SDS011;16273;51.234;7.616;2023-03-13T16:23:00;4.18;;;2.00;;
29248;SDS011;16273;51.234;7.616;2023-03-13T16:25:49;1.90;;;1.70;;
29248;SDS011;16273;51.234;7.616;2023-03-13T16:28:35;2.05;;;1.85;;
29248;SDS011;16273;51.234;7.616;2023-03-13T16:31:31;1.92;;;1.50;;
29248;SDS011;16273;51.234;7.616;2023-03-13T16:34:17;3.50;;;1.65;;
29248;SDS011;16273;51.234;7.616;2023-03-13T16:37:18;2.42;;;1.60;;
29248;SDS011;16273;51.234;7.616;2023-03-13T16:40:17;1.90;;;1.20;;
29248;SDS011;16273;51.234;7.616;2023-03-13T16:43:04;2.40;;;1.45;;
29248;SDS011;16273;51.234;7.616;2023-03-13T16:45:55;1.48;;;1.38;;
29248;SDS011;16273;51.234;7.616;2023-03-13T16:48:41;2.55;;;1.50;;
29248;SDS011;16273;51.234;7.616;2023-03-13T16:51:27;1.92;;;1.40;;
29248;SDS011;16273;51.234;7.616;2023-03-13T16:54:12;6.30;;;1.75;;
29248;SDS011;16273;51.234;7.616;2023-03-13T16:56:58;3.22;;;1.55;;
29248;SDS011;16273;51.234;7.616;2023-03-13T16:59:45;1.65;;;1.55;;
29248;SDS011;16273;51.234;7.616;2023-03-13T17:02:31;1.48;;;1.30;;
29248;SDS011;16273;51.234;7.616;2023-03-13T17:05:22;2.40;;;1.95;;
29248;SDS011;16273;51.234;7.616;2023-03-13T17:08:16;3.17;;;1.48;;
29248;SDS011;16273;51.234;7.616;2023-03-13T17:11:03;2.40;;;1.80;;
29248;SDS011;16273;51.234;7.616;2023-03-13T17:16:41;3.60;;;1.80;;
29248;SDS011;16273;51.234;7.616;2023-03-13T17:19:27;2.97;;;1.35;;
29248;SDS011;16273;51.234;7.616;2023-03-13T17:22:14;3.25;;;1.70;;
29248;SDS011;16273;51.234;7.616;2023-03-13T17:25:00;4.60;;;1.83;;
29248;SDS011;16273;51.234;7.616;2023-03-13T17:27:45;4.40;;;1.73;;
29248;SDS011;16273;51.234;7.616;2023-03-13T17:30:32;4.43;;;1.80;;
29248;SDS011;16273;51.234;7.616;2023-03-13T17:33:18;5.53;;;1.88;;
29248;SDS011;16273;51.234;7.616;2023-03-13T17:38:59;2.53;;;1.58;;
29248;SDS011;16273;51.234;7.616;2023-03-13T17:41:45;4.57;;;1.83;;
29248;SDS011;16273;51.234;7.616;2023-03-13T17:44:31;2.92;;;1.60;;
29248;SDS011;16273;51.234;7.616;2023-03-13T17:47:21;2.88;;;1.75;;
29248;SDS011;16273;51.234;7.616;2023-03-13T17:50:22;6.65;;;2.90;;
29248;SDS011;16273;51.234;7.616;2023-03-13T17:53:07;3.35;;;2.28;;
29248;SDS011;16273;51.234;7.616;2023-03-13T17:55:53;8.10;;;2.03;;
29248;SDS011;16273;51.234;7.616;2023-03-13T17:58:39;7.75;;;1.95;;
29248;SDS011;16273;51.234;7.616;2023-03-13T18:01:26;5.15;;;1.77;;
29248;SDS011;16273;51.234;7.616;2023-03-13T18:04:12;5.20;;;1.70;;
29248;SDS011;16273;51.234;7.616;2023-03-13T18:06:58;6.65;;;1.95;;
29248;SDS011;16273;51.234;7.616;2023-03-13T18:09:44;5.07;;;2.15;;
29248;SDS011;16273;51.234;7.616;2023-03-13T18:12:31;8.15;;;1.83;;
29248;SDS011;16273;51.234;7.616;2023-03-13T18:15:19;5.40;;;2.13;;
29248;SDS011;16273;51.234;7.616;2023-03-13T18:18:05;6.85;;;1.83;;
29248;SDS011;16273;51.234;7.616;2023-03-13T18:20:50;4.53;;;2.30;;
29248;SDS011;16273;51.234;7.616;2023-03-13T18:23:36;5.40;;;2.50;;
29248;SDS011;16273;51.234;7.616;2023-03-13T18:26:23;5.80;;;2.42;;
29248;SDS011;16273;51.234;7.616;2023-03-13T18:29:11;5.13;;;2.08;;
29248;SDS011;16273;51.234;7.616;2023-03-13T18:31:58;8.45;;;2.15;;
29248;SDS011;16273;51.234;7.616;2023-03-13T18:34:44;6.32;;;2.38;;
29248;SDS011;16273;51.234;7.616;2023-03-13T18:37:30;6.88;;;2.47;;
29248;SDS011;16273;51.234;7.616;2023-03-13T18:40:19;8.88;;;2.92;;
29248;SDS011;16273;51.234;7.616;2023-03-13T18:43:05;6.07;;;2.30;;
29248;SDS011;16273;51.234;7.616;2023-03-13T18:45:50;3.38;;;1.83;;
29248;SDS011;16273;51.234;7.616;2023-03-13T18:48:36;5.28;;;2.33;;
29248;SDS011;16273;51.234;7.616;2023-03-13T18:51:27;11.48;;;2.92;;
29248;SDS011;16273;51.234;7.616;2023-03-13T18:54:13;7.43;;;2.05;;
29248;SDS011;16273;51.234;7.616;2023-03-13T18:56:58;4.10;;;2.28;;